Time;durP1;ratioP1;P1;durP2;ratioP2;P2;SDS_P1;SDS_P2;PMS_P1;PMS_P2;Temp;Humidity;BMP_temperature;BMP_pressure;BME280_temperature;BME280_humidity;BME280_pressure;Samples;Min_cycle;Max_cycle;Signal;HPM_P1;HPM_P2
2022/09/19 00:00:39;;;;;;;;;3.00;3.00;;;;;17.38;47.29;101531.81;2092851;28;47855;-63
2022/09/19 00:01:41;;;;;;;;;5.00;4.00;;;;;17.39;47.68;101525.50;2103680;28;47544;-62
2022/09/19 00:02:42;;;;;;;;;3.00;3.00;;;;;17.40;47.32;101526.38;2085831;28;47549;-64
2022/09/19 00:03:45;;;;;;;;;4.00;4.00;;;;;17.40;47.68;101531.75;2086577;28;48034;-63
2022/09/19 00:04:45;;;;;;;;;2.00;2.00;;;;;17.39;47.50;101525.50;2100311;27;48005;-63
2022/09/19 00:05:46;;;;;;;;;2.00;2.00;;;;;17.39;47.31;101530.88;2085554;28;48171;-64
2022/09/19 00:06:49;;;;;;;;;2.00;2.00;;;;;17.40;47.65;101527.25;2078989;28;46467;-63
2022/09/19 00:07:49;;;;;;;;;3.00;3.00;;;;;17.39;47.58;101527.31;2099837;28;47562;-63
2022/09/19 00:08:50;;;;;;;;;6.00;5.00;;;;;17.41;47.67;101533.53;2094051;28;48144;-63
2022/09/19 00:09:50;;;;;;;;;4.00;3.00;;;;;17.40;47.33;101535.28;2095373;28;47387;-65
2022/09/19 00:10:51;;;;;;;;;5.00;5.00;;;;;17.40;47.52;101529.06;2102561;28;47748;-64
2022/09/19 00:11:53;;;;;;;;;5.00;3.40;;;;;17.38;47.53;101534.47;2097560;28;47441;-64
2022/09/19 00:12:55;;;;;;;;;3.00;3.00;;;;;17.38;47.51;101530.94;2103369;28;47401;-63
2022/09/19 00:13:58;;;;;;;;;4.00;4.00;;;;;17.39;47.69;101528.19;2103980;28;47969;-63
2022/09/19 00:14:59;;;;;;;;;2.60;2.40;;;;;17.38;47.73;101528.25;2094274;28;47576;-63
2022/09/19 00:16:00;;;;;;;;;0.00;0.00;;;;;17.38;47.79;101536.28;2093493;28;47947;-63
2022/09/19 00:17:06;;;;;;;;;3.50;3.50;;;;;17.35;47.44;101532.78;2101215;28;47396;-64
2022/09/19 00:18:07;;;;;;;;;4.25;4.25;;;;;17.34;47.35;101536.41;2096225;28;46387;-64
2022/09/19 00:19:10;;;;;;;;;6.50;6.50;;;;;17.33;47.30;101528.41;2100707;28;47875;-63
2022/09/19 00:20:10;;;;;;;;;6.80;6.80;;;;;17.33;47.65;101529.28;2096005;28;47439;-63
2022/09/19 00:21:10;;;;;;;;;8.50;8.50;;;;;17.32;47.69;101524.88;2101558;28;48261;-64
2022/09/19 00:22:11;;;;;;;;;5.25;5.25;;;;;17.33;47.90;101540.03;2103145;28;47170;-64
2022/09/19 00:24:45;;;;;;;;;7.40;6.40;;;;;17.34;47.82;101524.81;2104288;27;47593;-65
2022/09/19 00:25:46;;;;;;;;;4.40;4.40;;;;;17.35;47.65;101530.09;2110528;27;46240;-63
2022/09/19 00:26:46;;;;;;;;;4.67;4.67;;;;;17.35;48.07;101532.78;2102582;27;47052;-64
2022/09/19 00:27:47;;;;;;;;;3.00;3.00;;;;;17.35;47.73;101530.09;2097953;28;47266;-63
2022/09/19 00:28:47;;;;;;;;;4.50;4.50;;;;;17.37;47.62;101535.41;2099323;28;47596;-62
2022/09/19 00:29:48;;;;;;;;;5.00;5.00;;;;;17.37;47.67;101538.09;2104282;28;47229;-61
2022/09/19 00:30:49;;;;;;;;;4.00;4.00;;;;;17.36;47.74;101534.53;2102805;27;47706;-64
2022/09/19 00:31:49;;;;;;;;;4.00;4.00;;;;;17.35;47.68;101540.84;2097030;28;47736;-64
2022/09/19 00:32:51;;;;;;;;;4.25;4.25;;;;;17.35;47.76;101530.09;2099034;28;47505;-63
2022/09/19 00:33:52;;;;;;;;;5.00;5.00;;;;;17.35;48.02;101530.09;2103702;28;47742;-63
2022/09/19 00:34:54;;;;;;;;;4.00;4.00;;;;;17.34;47.69;101535.53;2102838;28;47579;-63
2022/09/19 00:35:55;;;;;;;;;4.80;3.40;;;;;17.33;48.00;101534.66;2086726;28;47121;-63
2022/09/19 00:36:55;;;;;;;;;2.00;2.00;;;;;17.33;47.91;101529.28;2081604;28;47945;-63
2022/09/19 00:37:55;;;;;;;;;5.50;4.00;;;;;17.34;48.09;101532.84;2096780;28;47886;-63
2022/09/19 00:38:56;;;;;;;;;4.25;4.25;;;;;17.34;47.83;101535.53;2100005;28;47235;-63
2022/09/19 00:39:56;;;;;;;;;3.50;3.50;;;;;17.33;47.68;101533.78;2101373;28;47576;-63
2022/09/19 00:40:57;;;;;;;;;5.25;5.00;;;;;17.31;47.80;101527.59;2099516;28;47861;-65
2022/09/19 00:41:58;;;;;;;;;2.00;2.00;;;;;17.32;47.86;101537.41;2103849;28;47704;-63
2022/09/19 00:43:00;;;;;;;;;4.25;4.25;;;;;17.31;47.97;101536.53;2099074;27;47725;-62
2022/09/19 00:44:03;;;;;;;;;5.00;4.00;;;;;17.31;48.38;101538.34;2104338;28;46062;-62
2022/09/19 00:45:13;;;;;;;;;3.20;3.00;;;;;17.30;48.04;101542.84;2098453;28;46870;-63
2022/09/19 00:46:14;;;;;;;;;4.60;4.60;;;;;17.29;48.06;101546.44;2088196;28;47550;-62
2022/09/19 00:47:18;;;;;;;;;5.00;4.20;;;;;17.28;48.20;101536.66;2085367;28;47807;-62
2022/09/19 00:48:22;;;;;;;;;3.00;3.00;;;;;17.27;47.81;101539.34;2094448;27;47550;-62
2022/09/19 00:49:25;;;;;;;;;4.20;4.20;;;;;17.25;48.22;101543.91;2085284;28;47632;-63
2022/09/19 00:50:28;;;;;;;;;4.80;4.60;;;;;17.23;47.93;101535.91;2083981;28;47937;-64
2022/09/19 00:51:43;;;;;;;;;4.00;4.00;;;;;17.23;48.31;101540.41;2102451;28;47971;-64
2022/09/19 00:52:49;;;;;;;;;5.00;5.00;;;;;17.22;48.05;101536.84;2094987;28;46550;-64
2022/09/19 00:53:50;;;;;;;;;4.80;4.80;;;;;17.20;48.09;101541.41;2096137;28;47688;-63
2022/09/19 00:54:51;;;;;;;;;4.60;4.00;;;;;17.20;48.50;101541.41;2102377;28;46712;-62
2022/09/19 00:55:54;;;;;;;;;3.00;3.00;;;;;17.19;48.42;101539.66;2099542;28;47404;-62
2022/09/19 00:56:56;;;;;;;;;4.40;4.00;;;;;17.21;48.40;101539.59;2102659;28;47515;-63
2022/09/19 00:58:21;;;;;;;;;4.00;4.00;;;;;17.19;48.07;101539.66;2103072;28;47497;-63
2022/09/19 00:59:23;;;;;;;;;3.00;3.00;;;;;17.18;48.32;101543.28;2100677;28;47560;-63
2022/09/19 01:00:23;;;;;;;;;4.00;3.20;;;;;17.17;48.40;101544.22;2097824;28;47580;-63
2022/09/19 01:01:24;;;;;;;;;2.75;2.00;;;;;17.16;48.59;101538.91;2103773;28;47263;-63
2022/09/19 01:02:28;;;;;;;;;4.50;4.50;;;;;17.17;48.47;101537.97;2101542;28;47892;-63
2022/09/19 01:03:30;;;;;;;;;5.40;4.20;;;;;17.16;48.56;101542.47;2103582;28;47691;-63
2022/09/19 01:04:35;;;;;;;;;2.60;2.60;;;;;17.15;48.33;101539.81;2103128;27;47530;-62
2022/09/19 01:05:59;;;;;;;;;3.20;3.20;;;;;17.14;48.41;101538.06;2094232;28;47237;-63
2022/09/19 01:07:22;;;;;;;;;3.20;3.20;;;;;17.14;48.75;101538.94;2095915;28;47616;-62
2022/09/19 01:08:52;;;;;;;;;4.20;4.20;;;;;17.15;48.58;101538.03;2102633;27;47381;-62
2022/09/19 01:10:19;;;;;;;;;5.60;4.00;;;;;17.17;48.60;101541.53;2103674;28;48486;-62
2022/09/19 01:11:42;;;;;;;;;3.80;3.80;;;;;17.17;48.61;101543.34;2096623;28;48009;-63
2022/09/19 01:13:20;;;;;;;;;2.80;2.80;;;;;17.16;48.75;101541.59;2097871;28;47176;-62
2022/09/19 01:14:39;;;;;;;;;6.40;6.40;;;;;17.16;48.63;101538.91;2103507;27;47301;-64
2022/09/19 01:15:43;;;;;;;;;3.40;3.40;;;;;17.13;48.71;101534.50;2104764;27;47931;-63
2022/09/19 01:16:50;;;;;;;;;4.80;4.80;;;;;17.14;49.14;101541.59;2098061;28;47774;-63
2022/09/19 01:17:57;;;;;;;;;4.60;4.60;;;;;17.13;48.69;101542.53;2103427;28;47407;-62
2022/09/19 01:19:08;;;;;;;;;3.00;3.00;;;;;17.14;48.46;101543.41;2101592;28;47579;-63
2022/09/19 01:20:22;;;;;;;;;3.60;3.00;;;;;17.14;48.91;101535.38;2095633;28;47946;-63
2022/09/19 01:21:39;;;;;;;;;5.00;5.00;;;;;17.12;48.69;101542.59;2102054;28;47255;-62
2022/09/19 01:23:16;;;;;;;;;4.80;4.80;;;;;17.12;48.90;101542.59;2101730;27;47993;-63
2022/09/19 01:24:37;;;;;;;;;3.80;3.80;;;;;17.10;48.99;101531.94;2103343;28;47862;-63
2022/09/19 01:25:55;;;;;;;;;4.00;4.00;;;;;17.11;49.18;101532.81;2100523;28;47309;-62
2022/09/19 01:27:00;;;;;;;;;4.00;4.00;;;;;17.10;49.20;101531.94;2101972;28;47627;-63
2022/09/19 01:28:17;;;;;;;;;6.20;2.40;;;;;17.11;49.00;101533.69;2104442;28;47064;-62
2022/09/19 01:29:25;;;;;;;;;6.00;4.80;;;;;17.10;49.35;101531.94;2103944;28;47638;-62
2022/09/19 01:30:26;;;;;;;;;4.60;4.60;;;;;17.09;48.93;101535.53;2098691;27;47559;-62
2022/09/19 01:31:35;;;;;;;;;5.25;5.25;;;;;17.09;48.81;101537.34;2104901;28;47380;-64
2022/09/19 01:32:43;;;;;;;;;5.60;5.00;;;;;17.09;49.24;101532.00;2103143;28;47918;-63
2022/09/19 01:34:12;;;;;;;;;4.20;4.00;;;;;17.06;49.08;101538.34;2104792;28;47775;-63
2022/09/19 01:35:16;;;;;;;;;4.00;4.00;;;;;17.06;49.43;101541.03;2103116;28;47418;-63
2022/09/19 01:36:20;;;;;;;;;3.00;3.00;;;;;17.05;49.29;101540.16;2103841;27;47155;-63
2022/09/19 01:37:30;;;;;;;;;3.60;3.60;;;;;17.05;49.53;101544.63;2103399;28;47932;-64
2022/09/19 01:38:37;;;;;;;;;5.00;4.00;;;;;17.04;49.37;101542.91;2103234;27;47298;-63
2022/09/19 01:39:41;;;;;;;;;4.40;4.40;;;;;17.03;49.20;101544.69;2101925;28;47470;-65
2022/09/19 01:40:43;;;;;;;;;3.20;3.20;;;;;17.01;49.31;101543.84;2102353;28;47847;-63
2022/09/19 01:41:48;;;;;;;;;3.80;3.80;;;;;17.01;49.40;101538.50;2103428;28;47564;-63
2022/09/19 01:42:57;;;;;;;;;4.00;4.00;;;;;17.01;49.03;101543.84;2103646;27;48419;-63
2022/09/19 01:44:05;;;;;;;;;4.20;4.20;;;;;17.00;49.37;101535.88;2095867;28;47169;-64
2022/09/19 01:45:10;;;;;;;;;2.80;2.80;;;;;17.00;49.52;101538.53;2095523;28;48053;-62
2022/09/19 01:46:39;;;;;;;;;3.80;3.80;;;;;17.02;49.32;101548.31;2105398;28;47959;-63
2022/09/19 01:48:18;;;;;;;;;3.00;2.80;;;;;17.03;49.50;101541.16;2104815;28;47697;-63
2022/09/19 01:49:37;;;;;;;;;4.40;4.40;;;;;17.04;49.54;101540.22;2102075;28;47629;-63
2022/09/19 01:50:47;;;;;;;;;4.40;4.40;;;;;17.03;49.48;101546.50;2099352;28;47382;-63
2022/09/19 01:51:57;;;;;;;;;6.60;3.60;;;;;17.01;49.64;101543.84;2089395;28;47512;-62
2022/09/19 01:53:16;;;;;;;;;4.40;4.40;;;;;17.00;49.32;101547.47;2087962;28;47674;-63
2022/09/19 01:54:29;;;;;;;;;4.00;4.00;;;;;17.00;49.21;101542.09;2097482;28;47241;-62
2022/09/19 01:55:42;;;;;;;;;4.00;4.00;;;;;17.00;49.56;101541.22;2092379;28;47693;-63
2022/09/19 01:56:53;;;;;;;;;4.00;4.00;;;;;17.01;49.46;101545.66;2094876;28;48237;-63
2022/09/19 01:58:07;;;;;;;;;3.20;3.20;;;;;17.02;49.84;101550.09;2094262;28;47706;-63
2022/09/19 01:59:40;;;;;;;;;4.00;4.00;;;;;17.01;49.43;101543.84;2094694;28;47575;-62
2022/09/19 02:01:08;;;;;;;;;3.40;3.40;;;;;17.01;49.40;101543.84;2067371;28;47784;-62
2022/09/19 02:02:28;;;;;;;;;4.00;4.00;;;;;16.99;49.66;101547.53;2059971;28;47396;-62
2022/09/19 02:03:41;;;;;;;;;5.20;4.60;;;;;16.98;49.76;101543.09;2056999;28;47516;-62
2022/09/19 02:04:52;;;;;;;;;5.00;3.80;;;;;16.97;49.79;101544.91;2062183;28;47961;-64
2022/09/19 02:06:06;;;;;;;;;3.20;3.20;;;;;16.96;49.70;101545.81;2070995;28;47516;-63
2022/09/19 02:07:27;;;;;;;;;2.80;2.00;;;;;16.95;49.60;101540.53;2069525;28;47666;-63
2022/09/19 02:08:45;;;;;;;;;3.80;3.80;;;;;16.94;50.03;101539.66;2055281;28;46520;-63
2022/09/19 02:09:56;;;;;;;;;4.20;3.40;;;;;16.96;49.70;101543.16;2060508;28;47597;-62
2022/09/19 02:11:03;;;;;;;;;3.00;3.00;;;;;16.96;49.62;101547.63;2057761;28;47714;-62
2022/09/19 02:12:07;;;;;;;;;6.80;3.00;;;;;16.98;49.93;101545.78;2060021;28;47684;-63
2022/09/19 02:13:10;;;;;;;;;3.20;3.20;;;;;16.99;50.04;101547.53;2056857;28;48042;-63
2022/09/19 02:14:19;;;;;;;;;4.60;4.60;;;;;16.98;49.72;101551.13;2063016;28;47564;-64
2022/09/19 02:15:29;;;;;;;;;3.20;3.20;;;;;16.96;49.99;101550.31;2057615;28;46378;-62
2022/09/19 02:16:36;;;;;;;;;3.60;3.60;;;;;16.95;50.11;101548.56;2052022;28;47712;-63
2022/09/19 02:17:44;;;;;;;;;3.80;3.80;;;;;16.94;49.99;101549.50;2052797;28;48242;-64
2022/09/19 02:18:56;;;;;;;;;1.60;1.60;;;;;16.93;49.95;101547.75;2053889;28;47137;-63
2022/09/19 02:20:02;;;;;;;;;3.00;2.00;;;;;16.91;50.30;101552.28;2051502;28;47361;-62
2022/09/19 02:21:07;;;;;;;;;3.00;3.00;;;;;16.89;49.79;101552.31;2050016;28;47398;-62
2022/09/19 02:22:14;;;;;;;;;5.20;4.20;;;;;16.89;50.00;101562.16;2047147;28;47945;-63
2022/09/19 02:23:24;;;;;;;;;4.80;4.80;;;;;16.87;50.31;101556.00;2053552;28;48057;-63
2022/09/19 02:24:30;;;;;;;;;3.40;3.40;;;;;16.87;50.60;101558.66;2066089;28;46073;-62
2022/09/19 02:25:34;;;;;;;;;3.20;3.20;;;;;16.87;50.30;101554.19;2058236;28;47875;-63
2022/09/19 02:26:36;;;;;;;;;2.00;2.00;;;;;16.88;50.63;101558.63;2060513;28;47229;-62
2022/09/19 02:27:43;;;;;;;;;3.00;3.00;;;;;16.89;50.47;101560.38;2054163;28;47221;-62
2022/09/19 02:28:49;;;;;;;;;3.40;3.20;;;;;16.90;50.31;101564.81;2052598;28;47603;-63
2022/09/19 02:29:56;;;;;;;;;4.40;4.40;;;;;16.91;49.82;101568.38;2057791;28;48071;-63
2022/09/19 02:30:59;;;;;;;;;5.80;5.80;;;;;16.91;50.03;101563.03;2059892;28;47689;-63
2022/09/19 02:32:00;;;;;;;;;3.00;3.00;;;;;16.89;50.22;101563.03;2061900;28;47914;-63
2022/09/19 02:33:06;;;;;;;;;5.00;3.00;;;;;16.91;50.16;101566.56;2060073;28;48333;-62
2022/09/19 02:34:07;;;;;;;;;3.20;3.20;;;;;16.92;50.22;101562.09;2056319;28;47866;-63
2022/09/19 02:35:08;;;;;;;;;3.00;3.00;;;;;16.91;50.43;101560.34;2056758;28;48107;-63
2022/09/19 02:36:18;;;;;;;;;2.80;2.80;;;;;16.91;50.63;101560.34;2062531;28;47810;-63
2022/09/19 02:37:21;;;;;;;;;4.60;4.00;;;;;16.91;50.44;101560.34;2077446;28;47816;-64
2022/09/19 02:38:44;;;;;;;;;4.00;4.00;;;;;16.92;50.40;101557.59;2078976;28;47469;-63
2022/09/19 02:39:57;;;;;;;;;4.60;4.60;;;;;16.92;50.18;101556.72;2085758;28;47468;-64
2022/09/19 02:41:21;;;;;;;;;2.00;2.00;;;;;16.91;50.41;101561.22;2096194;28;47307;-62
2022/09/19 02:42:33;;;;;;;;;4.60;3.80;;;;;16.91;50.22;101555.84;2092213;28;48890;-62
2022/09/19 02:43:56;;;;;;;;;3.20;3.20;;;;;16.91;50.32;101560.34;2101369;28;47810;-62
2022/09/19 02:45:11;;;;;;;;;3.40;3.00;;;;;16.91;50.25;101557.66;2103275;28;47679;-63
2022/09/19 02:46:30;;;;;;;;;4.00;4.00;;;;;16.90;50.11;101554.09;2096767;28;47472;-62
2022/09/19 02:47:45;;;;;;;;;3.00;3.00;;;;;16.88;50.61;101552.38;2101986;28;47713;-62
2022/09/19 02:48:54;;;;;;;;;3.40;3.00;;;;;16.88;50.67;101560.41;2100715;28;48083;-62
2022/09/19 02:50:03;;;;;;;;;4.60;4.60;;;;;16.87;50.08;101553.31;2099800;28;47461;-63
2022/09/19 02:51:13;;;;;;;;;4.60;4.60;;;;;16.87;50.77;101561.34;2093711;28;47321;-63
2022/09/19 02:52:20;;;;;;;;;3.20;3.20;;;;;16.85;50.54;101561.41;2102911;28;47792;-63
2022/09/19 02:53:26;;;;;;;;;4.40;4.40;;;;;16.85;50.23;101565.91;2103575;28;47975;-63
2022/09/19 02:54:31;;;;;;;;;2.80;2.80;;;;;16.84;50.49;101562.34;2103729;27;47870;-63
2022/09/19 02:55:40;;;;;;;;;3.00;3.00;;;;;16.84;50.82;101566.81;2097172;28;46685;-64
2022/09/19 02:56:43;;;;;;;;;3.60;3.60;;;;;16.82;50.82;101561.53;2102795;27;47552;-63
2022/09/19 02:57:47;;;;;;;;;3.00;3.00;;;;;16.83;50.42;101563.28;2092314;28;47434;-63
2022/09/19 02:58:56;;;;;;;;;1.20;1.20;;;;;16.82;50.44;101560.66;2085699;28;47296;-63
2022/09/19 03:00:00;;;;;;;;;3.80;3.80;;;;;16.82;50.44;101566.88;2094836;28;47719;-62
2022/09/19 03:01:17;;;;;;;;;4.00;4.00;;;;;16.83;50.81;101568.63;2098906;28;47773;-62
2022/09/19 03:02:22;;;;;;;;;3.00;3.00;;;;;16.81;50.53;101565.13;2099803;27;47605;-62
2022/09/19 03:04:55;;;;;;;;;3.80;3.80;;;;;16.80;51.07;101558.03;2104126;27;46675;-63
2022/09/19 03:05:59;;;;;;;;;4.60;4.60;;;;;16.80;50.91;101563.38;2095342;28;47315;-62
2022/09/19 03:07:13;;;;;;;;;2.00;2.00;;;;;16.80;50.92;101567.88;2092876;28;46838;-63
2022/09/19 03:08:15;;;;;;;;;3.00;3.00;;;;;16.80;50.70;101563.38;2105254;28;47947;-64
2022/09/19 03:09:21;;;;;;;;;4.20;3.80;;;;;16.79;50.88;101568.81;2101117;27;45362;-63
2022/09/19 03:10:29;;;;;;;;;3.20;3.20;;;;;16.78;50.96;101565.25;2103513;27;47028;-63
2022/09/19 03:11:33;;;;;;;;;4.00;4.00;;;;;16.76;50.81;101562.59;2095760;28;48065;-63
2022/09/19 03:12:40;;;;;;;;;3.60;3.60;;;;;16.75;50.93;101558.16;2099780;28;48018;-63
2022/09/19 03:13:42;;;;;;;;;4.40;4.40;;;;;16.76;50.79;101565.25;2104225;28;47653;-63
2022/09/19 03:14:42;;;;;;;;;3.00;3.00;;;;;16.77;51.36;101568.84;2098020;27;47544;-63
2022/09/19 03:15:50;;;;;;;;;3.75;3.00;;;;;16.77;50.86;101560.81;2096774;28;47644;-63
2022/09/19 03:16:56;;;;;;;;;3.50;3.50;;;;;16.77;50.91;101566.19;2099557;27;48135;-63
2022/09/19 03:17:57;;;;;;;;;3.80;3.80;;;;;16.75;51.00;101559.97;2103855;28;47483;-63
2022/09/19 03:18:58;;;;;;;;;2.20;2.20;;;;;16.72;51.11;101560.94;2096061;27;47595;-63
2022/09/19 03:19:59;;;;;;;;;2.60;2.60;;;;;16.70;51.31;101567.28;2095597;28;47457;-63
2022/09/19 03:21:02;;;;;;;;;3.40;3.40;;;;;16.68;51.46;101561.13;2101027;28;47557;-64
2022/09/19 03:22:03;;;;;;;;;4.00;3.20;;;;;16.67;51.04;101562.00;2099444;28;47588;-63
2022/09/19 03:23:09;;;;;;;;;4.75;4.75;;;;;16.68;51.42;101563.78;2102916;28;47439;-64
2022/09/19 03:24:11;;;;;;;;;3.00;3.00;;;;;16.67;51.13;101562.91;2102447;28;47517;-63
2022/09/19 03:25:14;;;;;;;;;3.60;3.60;;;;;16.68;51.24;101562.00;2101659;28;47365;-63
2022/09/19 03:26:25;;;;;;;;;3.00;3.00;;;;;16.69;51.53;101565.53;2104635;28;48285;-62
2022/09/19 03:27:25;;;;;;;;;3.20;3.20;;;;;16.69;51.16;101568.22;2101514;28;48453;-63
2022/09/19 03:28:25;;;;;;;;;3.75;3.75;;;;;16.69;51.07;101565.53;2103744;28;48155;-63
2022/09/19 03:29:26;;;;;;;;;4.00;3.50;;;;;16.68;51.22;101564.66;2104372;28;47149;-63
2022/09/19 03:30:26;;;;;;;;;2.75;2.75;;;;;16.68;51.31;101571.84;2098233;28;47431;-63
2022/09/19 03:31:27;;;;;;;;;2.50;2.50;;;;;16.67;51.49;101570.97;2086880;28;47081;-62
2022/09/19 03:32:27;;;;;;;;;4.00;4.00;;;;;16.66;51.12;101568.31;2084897;28;47729;-62
2022/09/19 03:33:28;;;;;;;;;3.00;1.33;;;;;16.61;51.53;101562.19;2100288;28;46945;-62
2022/09/19 03:34:30;;;;;;;;;3.00;3.00;;;;;16.64;51.09;101563.00;2103392;27;45565;-62
2022/09/19 03:35:31;;;;;;;;;3.00;3.00;;;;;16.65;51.24;101574.59;2095363;28;45170;-64
2022/09/19 03:36:33;;;;;;;;;2.50;1.75;;;;;16.62;51.25;101572.00;2092911;28;47284;-63
2022/09/19 03:37:34;;;;;;;;;3.60;2.80;;;;;16.61;51.18;101568.44;2104213;27;45221;-63
2022/09/19 03:38:36;;;;;;;;;3.00;3.00;;;;;16.60;51.25;101576.53;2099052;28;47573;-63
2022/09/19 03:39:36;;;;;;;;;1.80;1.80;;;;;16.60;51.23;101571.16;2095232;28;47422;-63
2022/09/19 03:40:37;;;;;;;;;2.00;2.00;;;;;16.59;51.43;101575.66;2097575;27;47463;-62
2022/09/19 03:41:38;;;;;;;;;3.00;3.00;;;;;16.59;51.40;101569.41;2101645;28;47625;-62
2022/09/19 03:42:38;;;;;;;;;3.00;3.00;;;;;16.57;51.71;101582.88;2101855;27;47784;-63
2022/09/19 03:43:42;;;;;;;;;3.75;2.75;;;;;16.57;51.36;101572.16;2104216;28;47468;-62
2022/09/19 03:44:42;;;;;;;;;5.20;4.20;;;;;16.57;51.52;101582.88;2103132;28;47698;-63
2022/09/19 03:45:43;;;;;;;;;3.75;3.75;;;;;16.57;51.60;101582.88;2096427;28;47156;-64
2022/09/19 03:46:46;;;;;;;;;3.00;3.00;;;;;16.55;51.72;101579.38;2085069;28;47275;-63
2022/09/19 03:47:47;;;;;;;;;3.20;2.20;;;;;16.55;51.38;101576.69;2093683;28;47682;-62
2022/09/19 03:48:47;;;;;;;;;4.00;4.00;;;;;16.54;51.39;101577.63;2102642;28;47777;-63
2022/09/19 03:49:51;;;;;;;;;3.50;3.50;;;;;16.54;51.63;101580.28;2103403;28;47445;-63
2022/09/19 03:50:53;;;;;;;;;22.60;22.00;;;;;16.54;51.75;101577.63;2094599;28;47152;-63
2022/09/19 03:51:53;;;;;;;;;31.20;28.80;;;;;16.55;51.31;101575.81;2095468;28;47601;-62
2022/09/19 03:52:54;;;;;;;;;22.00;21.00;;;;;16.53;51.53;101578.53;2103123;28;47965;-63
2022/09/19 03:53:55;;;;;;;;;14.20;14.20;;;;;16.55;51.53;101581.16;2103320;28;48523;-62
2022/09/19 03:54:56;;;;;;;;;11.75;10.75;;;;;16.55;51.39;101575.81;2101952;27;47859;-62
2022/09/19 03:55:57;;;;;;;;;6.20;6.20;;;;;16.55;51.71;101581.16;2104086;28;47849;-63
2022/09/19 03:56:58;;;;;;;;;3.20;3.20;;;;;16.53;51.59;101575.00;2102877;28;47611;-63
2022/09/19 03:57:58;;;;;;;;;4.00;4.00;;;;;16.53;51.63;101581.22;2096595;28;46820;-62
2022/09/19 03:58:59;;;;;;;;;7.25;5.75;;;;;16.53;51.30;101575.00;2091400;28;47599;-63
2022/09/19 03:59:59;;;;;;;;;4.00;4.00;;;;;16.53;51.98;101578.53;2095188;28;48138;-63
2022/09/19 04:01:00;;;;;;;;;3.00;3.00;;;;;16.53;51.67;101575.88;2102169;28;47657;-63
2022/09/19 04:02:00;;;;;;;;;4.00;4.00;;;;;16.54;51.85;101582.09;2102769;28;48195;-62
2022/09/19 04:03:01;;;;;;;;;2.00;2.00;;;;;16.53;51.63;101585.72;2098154;28;47165;-62
2022/09/19 04:04:01;;;;;;;;;2.75;2.75;;;;;16.52;51.98;101582.16;2104122;28;47264;-63
2022/09/19 04:05:02;;;;;;;;;1.25;1.25;;;;;16.52;51.79;101582.16;2092897;28;47663;-63
2022/09/19 04:06:04;;;;;;;;;3.00;3.00;;;;;16.52;51.63;101582.16;2080139;28;45875;-62
2022/09/19 04:07:04;;;;;;;;;3.00;3.00;;;;;16.49;52.06;101585.78;2093255;28;47520;-63
2022/09/19 04:08:05;;;;;;;;;4.00;4.00;;;;;16.48;52.32;101588.53;2096064;28;47643;-63
2022/09/19 04:09:05;;;;;;;;;3.75;3.75;;;;;16.47;51.96;101586.78;2091401;28;47521;-63
2022/09/19 04:10:06;;;;;;;;;2.00;2.00;;;;;16.46;52.33;101583.22;2095429;28;47567;-64
2022/09/19 04:11:09;;;;;;;;;2.00;2.00;;;;;16.47;52.23;101594.81;2098593;27;47486;-63
2022/09/19 04:12:10;;;;;;;;;3.20;3.20;;;;;16.45;52.04;101589.50;2100840;28;47458;-63
2022/09/19 04:13:11;;;;;;;;;3.00;3.00;;;;;16.44;52.50;101589.56;2101523;28;47327;-66
2022/09/19 04:14:12;;;;;;;;;4.40;4.40;;;;;16.42;52.10;101591.41;2104351;28;47566;-62
2022/09/19 04:15:13;;;;;;;;;3.40;3.40;;;;;16.39;52.03;101587.03;2103541;27;47549;-62
2022/09/19 04:16:17;;;;;;;;;3.40;3.40;;;;;16.40;51.94;101586.09;2104424;28;45548;-62
2022/09/19 04:17:17;;;;;;;;;2.60;2.60;;;;;16.41;52.11;101589.66;2102177;28;48063;-62
2022/09/19 04:18:18;;;;;;;;;4.75;4.75;;;;;16.41;52.02;101593.22;2094230;28;47419;-64
2022/09/19 04:19:18;;;;;;;;;3.50;3.50;;;;;16.41;52.07;101590.53;2093758;28;48141;-63
2022/09/19 04:20:19;;;;;;;;;3.25;2.75;;;;;16.42;52.17;101586.06;2099184;28;47839;-64
2022/09/19 04:21:19;;;;;;;;;4.50;4.50;;;;;16.42;51.99;101592.28;2103964;28;47208;-62
2022/09/19 04:22:21;;;;;;;;;2.00;2.00;;;;;16.41;52.05;101585.19;2103015;28;47366;-63
2022/09/19 04:23:26;;;;;;;;;3.20;3.20;;;;;16.40;52.44;101590.59;2098501;28;48503;-63
2022/09/19 04:24:29;;;;;;;;;5.00;5.00;;;;;16.37;52.37;101594.22;2095481;28;48107;-63
2022/09/19 04:25:35;;;;;;;;;4.00;4.00;;;;;16.36;52.68;101592.47;2086064;28;47240;-63
2022/09/19 04:26:36;;;;;;;;;6.60;5.20;;;;;16.36;52.54;101589.78;2091440;28;47738;-63
2022/09/19 04:27:40;;;;;;;;;4.60;4.60;;;;;16.38;52.25;101597.78;2095419;28;47286;-63
2022/09/19 04:28:42;;;;;;;;;4.20;2.40;;;;;16.37;52.52;101590.66;2095361;28;47566;-63
2022/09/19 04:29:42;;;;;;;;;5.80;5.80;;;;;16.38;52.30;101600.44;2099311;28;47794;-62
2022/09/19 04:30:43;;;;;;;;;7.75;5.75;;;;;16.37;52.71;101590.66;2104614;28;45208;-64
2022/09/19 04:31:43;;;;;;;;;6.60;6.60;;;;;16.37;52.69;101596.00;2104509;28;47270;-63
2022/09/19 04:32:44;;;;;;;;;7.00;7.00;;;;;16.37;52.55;101593.34;2095056;28;47506;-63
2022/09/19 04:33:44;;;;;;;;;8.00;7.00;;;;;16.37;52.48;101596.00;2095089;28;47322;-62
2022/09/19 04:34:47;;;;;;;;;7.00;7.00;;;;;16.36;52.80;101597.81;2101369;28;47965;-62
2022/09/19 04:35:47;;;;;;;;;9.20;8.20;;;;;16.36;52.80;101595.13;2096335;28;47412;-62
2022/09/19 04:36:50;;;;;;;;;9.50;8.00;;;;;16.36;52.78;101597.81;2097180;28;47457;-62
2022/09/19 04:37:51;;;;;;;;;7.80;7.80;;;;;16.36;52.75;101595.13;2101349;28;47443;-64
2022/09/19 04:38:52;;;;;;;;;7.75;5.75;;;;;16.36;52.44;101596.94;2101333;28;47408;-63
2022/09/19 04:39:53;;;;;;;;;4.80;4.40;;;;;16.35;53.02;101596.06;2103294;28;47548;-63
2022/09/19 04:40:56;;;;;;;;;4.00;4.00;;;;;16.35;52.73;101601.44;2103240;27;47628;-63
2022/09/19 04:41:58;;;;;;;;;4.80;4.40;;;;;16.35;52.75;101596.06;2092192;28;47541;-64
2022/09/19 04:42:58;;;;;;;;;5.40;4.60;;;;;16.35;52.81;101603.22;2093355;28;47833;-63
2022/09/19 04:43:58;;;;;;;;;4.75;4.00;;;;;16.35;52.96;101601.44;2091774;28;47506;-64
2022/09/19 04:44:59;;;;;;;;;6.25;5.00;;;;;16.33;52.96;101600.59;2095021;28;47877;-64
2022/09/19 04:46:01;;;;;;;;;3.75;3.75;;;;;16.34;52.52;101601.47;2100832;28;47498;-65
2022/09/19 04:47:01;;;;;;;;;5.60;5.60;;;;;16.34;52.75;101602.34;2103769;28;48025;-63
2022/09/19 04:48:05;;;;;;;;;4.00;4.00;;;;;16.35;52.57;101600.56;2087107;28;48180;-64
2022/09/19 04:49:05;;;;;;;;;4.00;4.00;;;;;16.35;53.10;101596.06;2090069;28;48056;-64
2022/09/19 04:50:08;;;;;;;;;6.25;5.50;;;;;16.35;52.60;101595.19;2090023;28;47986;-64
2022/09/19 04:51:08;;;;;;;;;5.20;5.20;;;;;16.33;52.67;101603.28;2077843;28;47566;-63
2022/09/19 04:52:12;;;;;;;;;3.50;3.50;;;;;16.33;53.08;101605.09;2078048;28;48071;-63
2022/09/19 04:53:13;;;;;;;;;4.80;4.00;;;;;16.33;52.83;101611.31;2086866;28;47910;-64
2022/09/19 04:54:14;;;;;;;;;4.60;4.60;;;;;16.32;52.73;101601.53;2085095;28;46779;-63
2022/09/19 04:55:15;;;;;;;;;4.75;4.75;;;;;16.32;52.81;101598.84;2091571;28;47302;-63
2022/09/19 04:56:17;;;;;;;;;5.25;5.25;;;;;16.33;53.14;101602.41;2092378;28;47687;-64
2022/09/19 04:57:17;;;;;;;;;7.40;4.60;;;;;16.32;52.83;101606.88;2095810;28;47744;-63
2022/09/19 04:58:18;;;;;;;;;4.25;4.25;;;;;16.32;53.21;101606.00;2085984;28;47620;-63
2022/09/19 04:59:19;;;;;;;;;3.20;3.00;;;;;16.31;52.80;101605.13;2085876;28;47627;-63
2022/09/19 05:00:36;;;;;;;;;5.50;5.00;;;;;16.28;52.85;101597.22;2088760;28;47092;-63
2022/09/19 05:01:38;;;;;;;;;5.40;4.80;;;;;16.30;53.07;101605.19;2092636;28;48166;-63
2022/09/19 05:02:38;;;;;;;;;3.40;3.40;;;;;16.30;52.83;101607.88;2095678;28;47742;-63
2022/09/19 05:03:43;;;;;;;;;4.25;3.25;;;;;16.30;52.84;101605.19;2097334;28;47375;-62
2022/09/19 05:04:44;;;;;;;;;0.00;0.00;;;;;16.30;52.89;101603.38;2097641;28;47802;-64
2022/09/19 05:05:53;;;;;;;;;5.60;5.00;;;;;16.30;52.82;101602.50;2094903;28;47505;-65
2022/09/19 05:06:53;;;;;;;;;4.40;4.40;;;;;16.30;52.90;101602.50;2095005;28;47540;-64
2022/09/19 05:07:53;;;;;;;;;3.00;3.00;;;;;16.31;53.39;101601.59;2097269;28;47468;-62